Bookmark and Share
Track history (hours):
 

Callsign E20782 (name unknown)

Last reported at 2010-Oct-19 06:00 UTC. Time now 2014-Apr-20 00:45 UTC.
Position N 48°24' W 004°24'.
Warning: this ship's position is years out of date!

Barometer 1019.8 mb
Air temperature 13.0 ° C

NotesDate/timePositionNaut miles runAvg speedWind from/ knotsBaromVisibWave heightAir tempDewpointWater temp
2010-Oct-19 06:00N 48°24' W 004°24'0 0.0 1019.8 13.0
2010-Oct-19 04:00N 48°24' W 004°24'0 0.0 1020.1 13.5
2010-Oct-18 19:00N 48°24' W 004°24'0 0.0 1024.1 13.0
2010-Oct-18 18:00N 48°24' W 004°24'0 0.0 1024.1 13.8
2010-Oct-18 16:00N 48°24' W 004°24'0 0.0 1024.0 15.3
2010-Oct-18 15:00N 48°24' W 004°24'0 0.0 1024.5 14.8
2010-Oct-18 14:00N 48°24' W 004°24'0 0.0 1024.6 15.8
2010-Oct-18 13:00N 48°24' W 004°24'0 0.0 1025.2 15.5
2010-Oct-18 12:00N 48°24' W 004°24'0 0.0 1026.0 14.3
2010-Oct-18 11:00N 48°24' W 004°24'0 0.0 1026.7 13.3
2010-Oct-18 10:00N 48°24' W 004°24'0 0.0 1026.8 12.0
2010-Oct-18 09:00N 48°24' W 004°24'0 0.0 1027.3 10.5
2010-Oct-18 08:00N 48°24' W 004°24'0 0.0 1027.1 10.0
2010-Oct-18 07:00N 48°24' W 004°24'0 0.0 1026.7 8.5
2010-Oct-18 05:00N 48°24' W 004°24'0 0.0 1026.6 6.3
2010-Oct-18 04:00N 48°24' W 004°24'0 0.0 1026.8 6.0
2010-Oct-18 03:00N 48°24' W 004°24'0 0.0 1026.7 6.0
2010-Oct-18 02:00N 48°24' W 004°24'0 0.0 1027.0 6.3
2010-Oct-18 00:00N 48°24' W 004°24'0 0.0 1027.3 6.8
2010-Oct-17 20:00N 48°24' W 004°24'0 0.0 1027.5 8.8
2010-Oct-17 19:00N 48°24' W 004°24'0 0.0 1027.7 9.3
2010-Oct-17 18:00N 48°24' W 004°24'0 0.0 1027.4 10.8
2010-Oct-17 14:00N 48°24' W 004°24'0 0.0 1026.1 14.3
2010-Oct-17 13:00N 48°24' W 004°24'0 0.0 1026.3 14.0
2010-Oct-17 12:00N 48°24' W 004°24'0 0.0 1026.5 14.0
2010-Oct-17 11:00N 48°24' W 004°24'0 0.0 1026.7 13.5
2010-Oct-17 09:00N 48°24' W 004°24'0 0.0 1026.5 13.5
2010-Oct-17 07:00N 48°24' W 004°24'0 0.0 1025.8 9.3
2010-Oct-17 04:00N 48°24' W 004°24'0 0.0 1024.4 10.3
2010-Oct-17 03:00N 48°24' W 004°24'0 0.0 1024.2 10.0
2010-Oct-17 02:00N 48°24' W 004°24'0 0.0 1024.4 10.5
2010-Oct-16 22:00N 48°24' W 004°24'0 0.0 1024.1 10.0
2010-Oct-16 21:00N 48°24' W 004°24'0 0.0 1023.7 10.0
2010-Oct-16 20:00N 48°24' W 004°24'0 0.0 1023.3 10.3
2010-Oct-16 14:00N 48°24' W 004°24'0 0.0 1020.6 14.5
2010-Oct-16 12:00N 48°24' W 004°24'0 0.0 1020.6 14.5
2010-Oct-16 11:00N 48°24' W 004°24'0 0.0 1020.5 14.8
2010-Oct-16 10:00N 48°24' W 004°24'0 0.0 1020.3 14.0
2010-Oct-16 09:00N 48°24' W 004°24'0 0.0 1020.0 13.3
2010-Oct-16 07:00N 48°24' W 004°24'0 0.0 1018.8 10.8
2010-Oct-16 04:00N 48°24' W 004°24'0 0.0 1017.9 12.8
2010-Oct-16 03:00N 48°24' W 004°24'0 0.0 1018.1 12.3
2010-Oct-16 02:00N 48°24' W 004°24'0 0.0 1018.7 11.8
2010-Oct-15 22:00N 48°24' W 004°24'0 0.0 1020.0 12.5
2010-Oct-15 21:00N 48°24' W 004°24'0 0.0 1020.0 12.3
2010-Oct-15 16:00N 48°24' W 004°24'0 0.0 1019.6 13.3
2010-Oct-15 15:00N 48°24' W 004°24'0 0.0 1019.8 13.8
2010-Oct-15 14:00N 48°24' W 004°24'0 0.0 1020.1 14.0
2010-Oct-15 11:00N 48°24' W 004°24'0 0.0 1021.1 14.0
2010-Oct-15 10:00N 48°24' W 004°24'0 0.0 1020.9 13.3
2010-Oct-15 07:00N 48°24' W 004°24'0 0.0 1020.3 11.5
2010-Oct-15 06:00N 48°24' W 004°24'0 0.0 1020.3 11.5
2010-Oct-15 05:00N 48°24' W 004°24'0 0.0 1020.2 11.3
2010-Oct-15 04:00N 48°24' W 004°24'0 0.0 1020.0 11.3
2010-Oct-15 03:00N 48°24' W 004°24'0 0.0 1020.3 11.5
2010-Oct-14 22:00N 48°24' W 004°24'0 0.0 1020.9 11.0
2010-Oct-14 21:00N 48°24' W 004°24'0 0.0 1021.1 11.0
2010-Oct-14 20:00N 48°24' W 004°24'0 0.0 1021.0 11.3
2010-Oct-14 16:00N 48°24' W 004°24'0 0.0 1020.7 13.3
2010-Oct-14 15:00N 48°24' W 004°24'0 0.0 1020.6 14.0
2010-Oct-14 13:00N 48°24' W 004°24'0 0.0 1020.8 14.8
2010-Oct-14 11:00N 48°24' W 004°24'0 0.0 1021.3 14.0
2010-Oct-14 09:00N 48°24' W 004°24'0 0.0 1021.1 13.0
2010-Oct-14 08:00N 48°24' W 004°24'0 0.0 1020.7 12.3
2010-Oct-14 04:00N 48°24' W 004°24'0 0.0 1020.0 11.8
2010-Oct-14 03:00N 48°24' W 004°24'0 0.0 1020.3 11.5
2010-Oct-13 21:00N 48°24' W 004°24'0 0.0 1019.8 12.0
2010-Oct-13 15:00N 48°24' W 004°24'0 0.0 1018.5 15.8
2010-Oct-13 13:00N 48°24' W 004°24'0 0.0 1018.7 16.0
2010-Oct-13 11:00N 48°24' W 004°24'0 0.0 1019.0 16.3
2010-Oct-13 04:00N 48°24' W 004°24'0 0.0 1017.2 11.8
2010-Oct-12 23:00N 48°24' W 004°24'0 0.0 1017.6 12.8
2010-Oct-12 20:00N 48°24' W 004°24'0 0.0 1016.7 13.8
2010-Oct-12 19:00N 48°24' W 004°24'0 0.0 1016.3 14.3
2010-Oct-12 18:00N 48°24' W 004°24'0 0.0 1016.0 14.5
2010-Oct-12 17:00N 48°24' W 004°24'0 0.0 1015.7 15.5
2010-Oct-12 16:00N 48°24' W 004°24'0 0.0 1015.4 16.8
2010-Oct-12 15:00N 48°24' W 004°24'0 0.0 1015.4 17.3
2010-Oct-12 13:00N 48°24' W 004°24'0 0.0 1015.8 18.0
2010-Oct-12 11:00N 48°24' W 004°24'0 0.0 1016.2 16.8
2010-Oct-12 10:00N 48°24' W 004°24'0 0.0 1016.0 16.0
2010-Oct-12 09:00N 48°24' W 004°24'0 0.0 1015.8 15.0
2010-Oct-12 08:00N 48°24' W 004°24'0 0.0 1015.3 13.8
2010-Oct-12 05:00N 48°24' W 004°24'0 0.0 1014.5 13.0
2010-Oct-12 03:00N 48°24' W 004°24'0 0.0 1014.2 13.3
2010-Oct-11 19:00N 48°24' W 004°24'0 0.0 1011.6 15.3
2010-Oct-11 18:00N 48°24' W 004°24'0 0.0 1011.2 15.5
2010-Oct-11 17:00N 48°24' W 004°24'0 0.0 1010.5 16.0
2010-Oct-11 15:00N 48°24' W 004°24'0 0.0 1010.6 17.0
2010-Oct-11 14:00N 48°24' W 004°24'0 0.0 1010.9 17.3
2010-Oct-11 13:00N 48°24' W 004°24'0 0.0 1011.5 17.5
2010-Oct-11 10:00N 48°24' W 004°24'0 0.0 1011.6 16.8
2010-Oct-11 09:00N 48°24' W 004°24'0 0.0 1011.2 16.5
2010-Oct-11 08:00N 48°24' W 004°24'0 0.0 1011.1 15.5
2010-Oct-11 07:00N 48°24' W 004°24'0 0.0 1010.5 13.8
2010-Oct-11 05:00N 48°24' W 004°24'0 0.0 1009.9 14.0
2010-Oct-11 04:00N 48°24' W 004°24'0 0.0 1009.8 13.8
2010-Oct-11 03:00N 48°24' W 004°24'0 0.0 1009.7 14.3
2010-Oct-11 02:00N 48°24' W 004°24'0 0.0 1009.5 14.3
2010-Oct-10 22:00N 48°24' W 004°24'0 0.0 1008.0 15.3
2010-Oct-10 20:00N 48°24' W 004°24'0 0.0 1007.1 17.0
2010-Oct-10 18:00N 48°24' W 004°24'0 0.0 1005.8 17.3
2010-Oct-10 14:00N 48°24' W 004°24'0 0.0 1003.9 20.5
2010-Oct-10 11:00N 48°24' W 004°24'0 0.0 1004.3 19.0
2010-Oct-10 10:00N 48°24' W 004°24'0 0.0 1004.1 18.5
2010-Oct-10 09:00N 48°24' W 004°24'0 0.0 1004.1 17.5
2010-Oct-10 06:00N 48°24' W 004°24'0 0.0 1003.3 17.0
2010-Oct-10 04:00N 48°24' W 004°24'0 0.0 1004.1 17.3
2010-Oct-10 03:00N 48°24' W 004°24'0 0.0 1004.7 17.3
2010-Oct-10 02:00N 48°24' W 004°24'0 0.0 1005.4 17.3
2010-Oct-10 00:00N 48°24' W 004°24'0 0.0 1007.0 18.0
2010-Oct-09 21:00N 48°24' W 004°24'0 0.0 1007.2 18.0
2010-Oct-09 20:00N 48°24' W 004°24'0 0.0 1006.8 18.0
2010-Oct-09 18:00N 48°24' W 004°24'0 0.0 1006.0 19.3
2010-Oct-09 16:00N 48°24' W 004°24'0 0.0 1005.0 20.0
2010-Oct-09 15:00N 48°24' W 004°24'0 0.0 1005.3 20.5
2010-Oct-09 12:00N 48°24' W 004°24'0 0.0 1006.2 20.5
2010-Oct-09 11:00N 48°24' W 004°24'0 0.0 1006.3 19.8
2010-Oct-09 09:00N 48°24' W 004°24'0 0.0 1006.3 18.3
2010-Oct-09 07:00N 48°24' W 004°24'   1006.2 18.0

Dump ship's entire track history

sailing weather and tide predictions

Ship Status Report: callsign E20782